createdAt,value
2019-02-22T00:00:52.760Z,6.33
2019-02-22T00:01:52.819Z,6.35
2019-02-22T00:02:52.756Z,6.29
2019-02-22T00:03:52.956Z,6.29
2019-02-22T00:04:52.757Z,6.29
2019-02-22T00:05:52.819Z,6.27
2019-02-22T00:06:52.754Z,6.26
2019-02-22T00:07:53.069Z,6.25
2019-02-22T00:08:53.029Z,6.28
2019-02-22T00:09:52.948Z,6.25
2019-02-22T00:10:52.688Z,6.24
2019-02-22T00:11:52.989Z,6.23
2019-02-22T00:12:53.480Z,6.21
2019-02-22T00:13:52.505Z,6.28
2019-02-22T00:14:52.503Z,6.27
2019-02-22T00:15:52.504Z,6.23
2019-02-22T00:16:53.026Z,6.26
2019-02-22T00:17:52.825Z,6.2
2019-02-22T00:18:53.088Z,6.23
2019-02-22T00:19:52.817Z,6.2
2019-02-22T00:20:52.799Z,6.2
2019-02-22T00:21:52.774Z,6.22
2019-02-22T00:22:53.048Z,6.21
2019-02-22T00:23:52.810Z,6.22
2019-02-22T00:24:52.644Z,6.17
2019-02-22T00:25:53.512Z,6.17
2019-02-22T00:26:53.310Z,6.18
2019-02-22T00:27:52.948Z,6.17
2019-02-22T00:28:53.524Z,6.24
2019-02-22T00:29:53.426Z,6.18
2019-02-22T00:30:53.006Z,6.18
2019-02-22T00:31:52.768Z,6.2
2019-02-22T00:32:52.987Z,6.19
2019-02-22T00:33:52.660Z,6.19
2019-02-22T00:34:54.119Z,6.26
2019-02-22T00:35:54.288Z,6.23
2019-02-22T00:36:53.015Z,6.21
2019-02-22T00:37:52.821Z,6.18
2019-02-22T00:41:52.827Z,6.2
2019-02-22T00:42:52.631Z,6.18
2019-02-22T00:43:53.506Z,6.22
2019-02-22T00:44:52.648Z,6.19
2019-02-22T00:45:52.709Z,6.26
2019-02-22T00:46:52.995Z,6.25
2019-02-22T00:47:52.743Z,6.25
2019-02-22T00:48:52.724Z,6.22
2019-02-22T00:49:52.715Z,6.2
2019-02-22T00:50:52.646Z,6.17
2019-02-22T00:51:53.567Z,6.19
2019-02-22T00:52:54.452Z,6.14
2019-02-22T00:53:53.197Z,6.16
2019-02-22T00:54:52.887Z,6.14
2019-02-22T00:55:52.765Z,6.15
2019-02-22T00:56:54.009Z,6.13
2019-02-22T00:57:52.775Z,6.16
2019-02-22T00:58:52.743Z,6.15
2019-02-22T00:59:52.739Z,6.15
2019-02-22T01:00:52.767Z,6.27
2019-02-22T01:01:53.686Z,6.35
2019-02-22T01:02:53.148Z,6.31
2019-02-22T01:03:52.825Z,6.26
2019-02-22T01:04:53.167Z,6.35
2019-02-22T01:05:52.602Z,6.28
2019-02-22T01:06:53.293Z,6.27
2019-02-22T01:07:52.740Z,6.26
2019-02-22T01:08:52.635Z,6.29
2019-02-22T01:09:53.044Z,6.3
2019-02-22T01:10:53.309Z,6.28
2019-02-22T01:11:52.724Z,6.22
2019-02-22T01:12:52.751Z,6.24
2019-02-22T01:13:52.615Z,6.21
2019-02-22T01:14:52.624Z,6.23
2019-02-22T01:15:52.753Z,6.21
2019-02-22T01:16:52.778Z,6.22
2019-02-22T01:17:52.618Z,6.22
2019-02-22T01:18:53.048Z,6.2
2019-02-22T01:19:54.032Z,6.24
2019-02-22T01:20:55.036Z,6.35
2019-02-22T01:21:52.573Z,6.43
2019-02-22T01:22:52.686Z,6.46
2019-02-22T01:23:52.657Z,6.59
2019-02-22T01:24:53.161Z,6.65
2019-02-22T01:25:52.829Z,6.67
2019-02-22T01:26:53.115Z,6.63
2019-02-22T01:27:52.675Z,6.67
2019-02-22T01:28:52.654Z,6.67
2019-02-22T01:29:52.852Z,6.63
2019-02-22T01:30:52.390Z,6.63
2019-02-22T01:31:52.698Z,6.56
2019-02-22T01:32:52.722Z,6.54
2019-02-22T01:33:54.536Z,6.54
2019-02-22T01:34:52.842Z,6.49
2019-02-22T01:35:52.598Z,6.56
2019-02-22T01:36:54.413Z,6.58
2019-02-22T01:37:52.630Z,6.5
2019-02-22T01:38:52.391Z,6.44
2019-02-22T01:39:52.399Z,6.43
2019-02-22T01:40:52.399Z,6.42
2019-02-22T01:41:52.391Z,6.41
2019-02-22T01:42:52.771Z,6.39
2019-02-22T01:43:52.573Z,6.35
2019-02-22T01:44:52.656Z,6.33
2019-02-22T01:45:53.079Z,6.29
2019-02-22T01:46:52.569Z,6.26
2019-02-22T01:47:52.740Z,6.27
2019-02-22T01:48:53.435Z,6.3
2019-02-22T01:49:52.767Z,6.39
2019-02-22T01:50:54.376Z,6.34
2019-02-22T01:51:54.391Z,6.43
2019-02-22T01:52:54.403Z,6.54
2019-02-22T01:53:54.348Z,6.42
2019-02-22T01:54:52.572Z,6.34
2019-02-22T01:55:54.400Z,6.33
2019-02-22T01:56:52.363Z,6.55
2019-02-22T01:57:52.376Z,6.46
2019-02-22T01:58:52.374Z,6.39
2019-02-22T01:59:52.366Z,6.49
2019-02-22T02:00:52.592Z,6.64
2019-02-22T02:01:54.375Z,6.49
2019-02-22T02:02:52.349Z,6.42
2019-02-22T02:03:52.357Z,6.35
2019-02-22T02:04:52.348Z,6.36
2019-02-22T02:05:52.604Z,6.4
2019-02-22T02:06:52.711Z,6.34
2019-02-22T02:07:52.962Z,6.51
2019-02-22T02:08:52.571Z,6.46
2019-02-22T02:09:52.653Z,6.55
2019-02-22T02:10:54.760Z,6.46
2019-02-22T02:11:52.557Z,6.39
2019-02-22T02:12:53.106Z,6.42
2019-02-22T02:13:52.633Z,6.36
2019-02-22T02:14:52.826Z,6.34
2019-02-22T02:15:52.601Z,6.36
2019-02-22T02:16:52.591Z,6.35
2019-02-22T02:17:52.929Z,6.32
2019-02-22T02:18:52.509Z,6.28
2019-02-22T02:19:52.531Z,6.29
2019-02-22T02:20:52.924Z,6.34
2019-02-22T02:21:52.614Z,6.32
2019-02-22T02:22:52.562Z,6.34
2019-02-22T02:23:52.976Z,6.32
2019-02-22T02:24:52.775Z,6.4
2019-02-22T02:25:52.994Z,6.57
2019-02-22T02:26:53.355Z,6.44
2019-02-22T02:27:54.333Z,6.37
2019-02-22T02:28:52.694Z,6.38
2019-02-22T02:29:52.499Z,6.39
2019-02-22T02:30:53.066Z,6.41
2019-02-22T02:31:54.326Z,6.36
2019-02-22T02:32:53.033Z,6.36
2019-02-22T02:33:52.727Z,6.46
2019-02-22T02:34:52.687Z,6.35
2019-02-22T02:35:52.916Z,6.44
2019-02-22T02:36:54.342Z,6.42
2019-02-22T02:37:54.327Z,6.43
2019-02-22T02:38:53.036Z,6.4
2019-02-22T02:39:52.707Z,6.36
2019-02-22T02:40:52.819Z,6.51
2019-02-22T02:41:52.559Z,6.46
2019-02-22T02:42:52.590Z,6.37
2019-02-22T02:43:52.325Z,6.37
2019-02-22T02:44:52.756Z,6.35
2019-02-22T02:45:52.535Z,6.39
2019-02-22T02:46:52.512Z,6.33
2019-02-22T02:47:53.431Z,6.4
2019-02-22T02:48:52.968Z,6.47
2019-02-22T02:49:52.589Z,6.39
2019-02-22T02:50:52.566Z,6.4
2019-02-22T02:51:52.862Z,6.42
2019-02-22T02:52:52.750Z,6.37
2019-02-22T02:53:52.720Z,6.34
2019-02-22T02:54:52.689Z,6.43
2019-02-22T02:55:52.506Z,6.47
2019-02-22T02:56:53.306Z,6.41
2019-02-22T02:57:52.522Z,6.39
2019-02-22T02:58:53.383Z,6.43
2019-02-22T02:59:54.308Z,6.41
2019-02-22T03:00:52.475Z,6.44
2019-02-22T03:01:52.711Z,6.54
2019-02-22T03:02:54.285Z,6.5
2019-02-22T03:03:54.666Z,6.56
2019-02-22T03:04:52.544Z,6.52
2019-02-22T03:05:52.822Z,6.45
2019-02-22T03:06:52.569Z,6.39
2019-02-22T03:07:52.571Z,6.38
2019-02-22T03:08:53.155Z,6.35
2019-02-22T03:09:52.974Z,6.31
2019-02-22T03:10:52.477Z,6.34
2019-02-22T03:11:52.580Z,6.36
2019-02-22T03:12:52.595Z,6.36
2019-02-22T03:13:53.035Z,6.38
2019-02-22T03:14:54.270Z,6.41
2019-02-22T03:15:52.786Z,6.32
2019-02-22T03:16:52.741Z,6.32
2019-02-22T03:17:52.712Z,6.42
2019-02-22T03:18:52.501Z,6.39
2019-02-22T03:19:53.323Z,6.44
2019-02-22T03:20:52.863Z,6.37
2019-02-22T03:21:52.426Z,6.41
2019-02-22T03:22:52.970Z,6.36
2019-02-22T03:23:52.557Z,6.36
2019-02-22T03:24:53.943Z,6.37
2019-02-22T03:25:52.644Z,6.3
2019-02-22T03:26:52.805Z,6.34
2019-02-22T03:27:52.894Z,6.32
2019-02-22T03:28:52.565Z,6.37
2019-02-22T03:29:52.798Z,6.33
2019-02-22T03:30:52.929Z,6.35
2019-02-22T03:31:52.625Z,6.36
2019-02-22T03:32:52.724Z,6.33
2019-02-22T03:33:52.670Z,6.41
2019-02-22T03:34:52.454Z,6.42
2019-02-22T03:35:52.565Z,6.39
2019-02-22T03:36:52.674Z,6.46
2019-02-22T03:37:52.471Z,6.43
2019-02-22T03:38:52.583Z,6.52
2019-02-22T03:39:52.435Z,6.51
2019-02-22T03:40:52.503Z,6.52
2019-02-22T03:41:52.665Z,6.52
2019-02-22T03:42:53.015Z,6.55
2019-02-22T03:43:52.589Z,6.52
2019-02-22T03:44:52.417Z,6.54
2019-02-22T03:45:53.092Z,6.55
2019-02-22T03:46:52.700Z,6.58
2019-02-22T03:47:52.409Z,6.54
2019-02-22T03:48:52.598Z,6.56
2019-02-22T03:49:52.722Z,6.57
2019-02-22T03:50:52.636Z,6.59
2019-02-22T03:51:53.099Z,6.59
2019-02-22T03:52:54.254Z,6.6
2019-02-22T03:53:52.449Z,6.58
2019-02-22T03:54:52.585Z,6.6
2019-02-22T03:55:52.775Z,6.62
2019-02-22T03:56:52.578Z,6.6
2019-02-22T03:57:52.664Z,6.58
2019-02-22T03:58:52.501Z,6.6
2019-02-22T03:59:53.064Z,6.6
2019-02-22T04:00:52.475Z,6.56
2019-02-22T04:01:52.707Z,6.58
2019-02-22T04:02:52.455Z,6.58
2019-02-22T04:03:52.390Z,6.59
2019-02-22T04:04:52.461Z,6.59
2019-02-22T04:05:52.530Z,6.59
2019-02-22T04:06:52.431Z,6.58
2019-02-22T04:07:52.457Z,6.59
2019-02-22T04:08:52.437Z,6.59
2019-02-22T04:09:52.787Z,6.54
2019-02-22T04:10:52.779Z,6.58
2019-02-22T04:11:52.688Z,6.58
2019-02-22T04:12:52.383Z,6.56
2019-02-22T04:13:53.147Z,6.57
2019-02-22T04:14:52.909Z,6.56
2019-02-22T04:15:52.532Z,6.56
2019-02-22T04:16:53.022Z,6.57
2019-02-22T04:17:52.421Z,6.58
2019-02-22T04:18:52.709Z,6.59
2019-02-22T04:19:52.336Z,6.6
2019-02-22T04:20:53.308Z,6.57
2019-02-22T04:21:52.416Z,6.58
2019-02-22T04:22:52.640Z,6.58
2019-02-22T04:23:52.405Z,6.6
2019-02-22T04:24:52.323Z,6.57
2019-02-22T04:25:52.400Z,6.58
2019-02-22T04:26:52.380Z,6.56
2019-02-22T04:27:52.899Z,6.58
2019-02-22T04:28:52.465Z,6.56
2019-02-22T04:29:52.459Z,6.52
2019-02-22T04:30:52.460Z,6.58
2019-02-22T04:31:52.605Z,6.58
2019-02-22T04:32:52.325Z,6.58
2019-02-22T04:33:52.379Z,6.54
2019-02-22T04:34:52.421Z,6.54
2019-02-22T04:35:53.641Z,6.59
2019-02-22T04:36:54.166Z,6.57
2019-02-22T04:37:52.761Z,6.51
2019-02-22T04:38:52.822Z,6.53
2019-02-22T04:39:52.321Z,6.54
2019-02-22T04:40:52.514Z,6.57
2019-02-22T04:41:58.723Z,6.52
2019-02-22T04:42:52.422Z,6.49
2019-02-22T04:43:52.475Z,6.5
2019-02-22T04:44:52.334Z,6.49
2019-02-22T04:45:52.595Z,6.46
2019-02-22T04:46:52.451Z,6.47
2019-02-22T04:47:52.492Z,6.44
2019-02-22T04:48:52.396Z,6.42
2019-02-22T04:49:54.166Z,6.43
2019-02-22T04:50:53.015Z,6.44
2019-02-22T04:51:54.154Z,6.46
2019-02-22T04:52:52.755Z,6.42
2019-02-22T04:53:52.345Z,6.45
2019-02-22T04:54:52.669Z,6.42
2019-02-22T04:55:52.663Z,6.4
2019-02-22T04:56:52.969Z,6.41
2019-02-22T04:57:53.799Z,6.46
2019-02-22T04:58:52.438Z,6.44
2019-02-22T04:59:53.215Z,6.39
2019-02-22T05:00:53.164Z,6.39
2019-02-22T05:01:52.402Z,6.48
2019-02-22T05:02:52.451Z,6.46
2019-02-22T05:03:52.438Z,6.46
2019-02-22T05:04:52.393Z,6.44
2019-02-22T05:05:52.605Z,6.43
2019-02-22T05:06:52.523Z,6.55
2019-02-22T05:07:52.697Z,6.55
2019-02-22T05:08:52.647Z,6.45
2019-02-22T05:09:52.378Z,6.47
2019-02-22T05:10:52.652Z,6.51
2019-02-22T05:11:52.652Z,6.48
2019-02-22T05:12:54.151Z,6.44
2019-02-22T05:13:53.139Z,6.43
2019-02-22T05:14:53.583Z,6.39
2019-02-22T05:15:52.700Z,6.38
2019-02-22T05:16:53.846Z,6.36
2019-02-22T05:17:52.366Z,6.38
2019-02-22T05:18:53.811Z,6.4
2019-02-22T05:19:52.253Z,6.44
2019-02-22T05:20:52.623Z,6.44
2019-02-22T05:21:52.354Z,6.44
2019-02-22T05:23:07.773Z,6.45
2019-02-22T05:23:53.209Z,6.36
2019-02-22T05:24:52.685Z,6.34
2019-02-22T05:25:52.786Z,6.33
2019-02-22T05:26:53.073Z,6.31
2019-02-22T05:27:52.701Z,6.3
2019-02-22T05:28:52.562Z,6.38
2019-02-22T05:29:52.439Z,6.45
2019-02-22T05:30:52.352Z,6.43
2019-02-22T05:31:52.410Z,6.44
2019-02-22T05:32:52.593Z,6.39
2019-02-22T05:33:52.402Z,6.36
2019-02-22T05:34:52.257Z,6.38
2019-02-22T05:35:52.529Z,6.35
2019-02-22T05:36:52.531Z,6.35
2019-02-22T05:37:52.369Z,6.37
2019-02-22T05:38:52.427Z,6.34
2019-02-22T05:39:53.075Z,6.3
2019-02-22T05:40:52.985Z,6.37
2019-02-22T05:41:52.359Z,6.37
2019-02-22T05:42:52.287Z,6.46
2019-02-22T05:43:52.878Z,6.6
2019-02-22T05:44:54.073Z,6.57
2019-02-22T05:45:53.131Z,6.52
2019-02-22T05:47:00.974Z,6.48
2019-02-22T05:47:52.482Z,6.51
2019-02-22T05:48:52.279Z,6.49
2019-02-22T05:49:53.320Z,6.51
2019-02-22T05:50:52.316Z,6.54
2019-02-22T05:51:52.280Z,6.47
2019-02-22T05:52:52.599Z,6.44
2019-02-22T05:53:52.559Z,6.46
2019-02-22T05:54:54.063Z,6.5
2019-02-22T05:55:52.307Z,6.45
2019-02-22T05:56:55.573Z,6.42
2019-02-22T05:57:52.463Z,6.39
2019-02-22T05:58:52.227Z,6.39
2019-02-22T05:59:52.879Z,6.37
2019-02-22T06:00:52.044Z,6.38
2019-02-22T06:01:52.941Z,6.37
2019-02-22T06:02:52.384Z,6.36
2019-02-22T06:03:52.600Z,6.45
2019-02-22T06:04:52.387Z,6.48
2019-02-22T06:05:52.712Z,6.49
2019-02-22T06:06:54.030Z,6.43
2019-02-22T06:07:52.450Z,6.4
2019-02-22T06:08:52.658Z,6.46
2019-02-22T06:09:54.050Z,6.39
2019-02-22T06:10:52.540Z,6.36
2019-02-22T06:11:52.561Z,6.41
2019-02-22T06:12:53.114Z,6.37
2019-02-22T06:13:52.264Z,6.35
2019-02-22T06:14:52.312Z,6.43
2019-02-22T06:15:52.186Z,6.41
2019-02-22T06:16:52.597Z,6.46
2019-02-22T06:17:53.723Z,6.43
2019-02-22T06:18:52.389Z,6.54
2019-02-22T06:19:52.903Z,6.56
2019-02-22T06:20:52.604Z,6.62
2019-02-22T06:21:53.203Z,6.6
2019-02-22T06:22:54.027Z,6.57
2019-02-22T06:23:53.194Z,6.62
2019-02-22T06:24:52.535Z,6.64
2019-02-22T06:25:52.598Z,6.52
2019-02-22T06:26:52.392Z,6.5
2019-02-22T06:27:52.602Z,6.55
2019-02-22T06:28:52.670Z,6.61
2019-02-22T06:29:52.554Z,6.55
2019-02-22T06:30:52.698Z,6.47
2019-02-22T06:31:52.234Z,6.56
2019-02-22T06:32:52.291Z,6.49
2019-02-22T06:33:52.316Z,6.46
2019-02-22T06:34:52.489Z,6.45
2019-02-22T06:35:52.250Z,6.44
2019-02-22T06:37:03.754Z,6.46
2019-02-22T06:37:54.005Z,6.47
2019-02-22T06:38:52.451Z,6.48
2019-02-22T06:39:51.990Z,6.45
2019-02-22T06:40:52.017Z,6.55
2019-02-22T06:41:51.998Z,6.6
2019-02-22T06:42:52.342Z,6.65
2019-02-22T06:43:52.454Z,6.64
2019-02-22T06:44:52.780Z,6.71
2019-02-22T06:45:52.119Z,6.6
2019-02-22T06:46:52.180Z,6.55
2019-02-22T06:47:52.380Z,6.55
2019-02-22T06:48:52.237Z,6.56
2019-02-22T06:49:52.411Z,6.61
2019-02-22T06:50:53.132Z,6.52
2019-02-22T06:51:52.292Z,6.57
2019-02-22T06:52:51.957Z,6.66
2019-02-22T06:53:52.423Z,6.56
2019-02-22T06:54:53.044Z,6.71
2019-02-22T06:55:52.193Z,6.83
2019-02-22T06:56:52.238Z,6.8
2019-02-22T06:57:52.837Z,6.71
2019-02-22T06:58:52.252Z,6.67
2019-02-22T06:59:52.191Z,6.68
2019-02-22T07:00:52.473Z,6.62
2019-02-22T07:01:52.375Z,6.64
2019-02-22T07:02:52.123Z,6.61
2019-02-22T07:03:52.209Z,6.79
2019-02-22T07:04:52.498Z,6.86
2019-02-22T07:05:52.813Z,6.81
2019-02-22T07:06:53.984Z,6.92
2019-02-22T07:07:52.266Z,6.92
2019-02-22T07:08:52.627Z,6.9
2019-02-22T07:09:52.313Z,6.92
2019-02-22T07:10:52.800Z,6.81
2019-02-22T07:11:52.548Z,6.88
2019-02-22T07:12:57.710Z,6.84
2019-02-22T07:13:52.459Z,6.78
2019-02-22T07:14:52.357Z,6.8
2019-02-22T07:15:52.187Z,6.74
2019-02-22T07:16:52.107Z,6.73
2019-02-22T07:17:51.924Z,6.88
2019-02-22T07:18:52.690Z,6.99
2019-02-22T07:19:52.697Z,6.98
2019-02-22T07:20:52.492Z,6.99
2019-02-22T07:21:53.485Z,6.97
2019-02-22T07:22:53.931Z,7.01
2019-02-22T07:23:52.528Z,7.03
2019-02-22T07:24:52.270Z,7
2019-02-22T07:25:52.274Z,6.97
2019-02-22T07:26:52.644Z,7.01
2019-02-22T07:27:52.447Z,6.99
2019-02-22T07:28:52.995Z,7.01
2019-02-22T07:29:53.921Z,6.94
2019-02-22T07:30:52.322Z,6.9
2019-02-22T07:32:06.633Z,6.9
2019-02-22T07:32:52.599Z,6.87
2019-02-22T07:33:52.729Z,6.86
2019-02-22T07:34:52.283Z,6.87
2019-02-22T07:35:52.204Z,6.85
2019-02-22T07:36:52.249Z,6.86
2019-02-22T07:37:52.257Z,6.88
2019-02-22T07:38:52.523Z,6.89
2019-02-22T07:39:53.930Z,6.89
2019-02-22T07:40:52.981Z,6.89
2019-02-22T07:41:52.077Z,6.93
2019-02-22T07:42:52.538Z,6.94
2019-02-22T07:43:52.437Z,6.95
2019-02-22T07:44:52.175Z,6.96
2019-02-22T07:45:52.468Z,6.95
2019-02-22T07:46:52.460Z,7
2019-02-22T07:47:52.599Z,6.97
2019-02-22T07:48:53.062Z,7
2019-02-22T07:49:52.703Z,6.98
2019-02-22T07:50:58.740Z,7.02
2019-02-22T07:51:54.118Z,7
2019-02-22T07:52:53.896Z,7.04
2019-02-22T07:53:52.413Z,7.06
2019-02-22T07:54:53.882Z,7.06
2019-02-22T07:55:52.119Z,7.09
2019-02-22T07:56:53.934Z,7.1
2019-02-22T07:57:51.868Z,7.15
2019-02-22T07:58:51.880Z,7.15
2019-02-22T07:59:52.239Z,7.16
2019-02-22T08:00:52.359Z,7.16
2019-02-22T08:01:52.189Z,7.15
2019-02-22T08:02:53.912Z,7.21
2019-02-22T08:03:52.406Z,7.17
2019-02-22T08:04:53.870Z,7.2
2019-02-22T08:05:52.293Z,7.19
2019-02-22T08:06:52.910Z,7.21
2019-02-22T08:07:52.253Z,7.22
2019-02-22T08:08:52.315Z,7.19
2019-02-22T08:09:52.090Z,7.25
2019-02-22T08:10:52.164Z,7.24
2019-02-22T08:11:52.648Z,7.18
2019-02-22T08:12:53.237Z,7.22
2019-02-22T08:13:52.653Z,7.21
2019-02-22T08:14:52.110Z,7.25
2019-02-22T08:15:52.252Z,7.23
2019-02-22T08:16:52.389Z,7.26
2019-02-22T08:17:52.671Z,7.25
2019-02-22T08:19:02.208Z,7.24
2019-02-22T08:19:52.400Z,7.3
2019-02-22T08:20:52.429Z,7.3
2019-02-22T08:21:53.253Z,7.25
2019-02-22T08:22:52.004Z,7.28
2019-02-22T08:23:52.573Z,7.28
2019-02-22T08:24:52.101Z,7.3
2019-02-22T08:25:52.841Z,7.32
2019-02-22T08:26:52.162Z,7.33
2019-02-22T08:27:54.679Z,7.33
2019-02-22T08:28:52.352Z,7.39
2019-02-22T08:29:52.341Z,7.4
2019-02-22T08:30:52.471Z,7.4
2019-02-22T08:32:53.234Z,7.38
2019-02-22T08:33:52.578Z,7.36
2019-02-22T08:34:52.782Z,7.37
2019-02-22T08:35:53.881Z,7.39
2019-02-22T08:36:52.046Z,7.42
2019-02-22T08:37:52.295Z,7.43
2019-02-22T08:38:52.003Z,7.48
2019-02-22T08:40:02.671Z,7.48
2019-02-22T08:40:52.433Z,7.5
2019-02-22T08:41:52.224Z,7.53
2019-02-22T08:42:52.089Z,7.48
2019-02-22T08:43:52.546Z,7.51
2019-02-22T08:44:52.551Z,7.53
2019-02-22T08:45:52.098Z,7.55
2019-02-22T08:46:52.081Z,7.52
2019-02-22T08:47:53.079Z,7.54
2019-02-22T08:48:52.479Z,7.6
2019-02-22T08:49:52.157Z,7.63
2019-02-22T08:50:52.519Z,7.61
2019-02-22T08:51:52.809Z,7.64
2019-02-22T08:52:51.998Z,7.61
2019-02-22T08:53:52.402Z,7.61
2019-02-22T08:54:52.064Z,7.64
2019-02-22T08:55:52.091Z,7.69
2019-02-22T08:56:53.216Z,7.68
2019-02-22T08:57:52.537Z,7.71
2019-02-22T08:58:52.076Z,7.69
2019-02-22T08:59:52.120Z,7.7
2019-02-22T09:00:52.236Z,7.73
2019-02-22T09:01:52.222Z,7.69
2019-02-22T09:02:52.166Z,7.71
2019-02-22T09:03:53.868Z,7.72
2019-02-22T09:04:52.043Z,7.71
2019-02-22T09:05:52.294Z,7.72
2019-02-22T09:06:52.761Z,7.7
2019-02-22T09:07:52.869Z,7.76
2019-02-22T09:08:52.726Z,7.74
2019-02-22T09:09:52.408Z,7.75
2019-02-22T09:11:01.122Z,7.73
2019-02-22T09:11:52.151Z,7.75
2019-02-22T09:12:51.995Z,7.74
2019-02-22T09:13:52.084Z,7.76
2019-02-22T09:14:52.057Z,7.7
2019-02-22T09:15:52.767Z,7.78
2019-02-22T09:16:52.032Z,7.77
2019-02-22T09:17:52.145Z,7.74
2019-02-22T09:18:53.087Z,7.77
2019-02-22T09:19:52.195Z,7.79
2019-02-22T09:20:52.288Z,7.76
2019-02-22T09:21:53.769Z,7.8
2019-02-22T09:22:52.104Z,7.79
2019-02-22T09:23:52.247Z,7.79
2019-02-22T09:24:52.505Z,7.86
2019-02-22T09:25:52.216Z,7.84
2019-02-22T09:26:52.002Z,7.9
2019-02-22T09:27:52.453Z,7.84
2019-02-22T09:28:52.254Z,7.89
2019-02-22T09:29:59.398Z,7.87
2019-02-22T09:30:52.454Z,7.9
2019-02-22T09:31:51.990Z,7.95
2019-02-22T09:32:52.777Z,7.97
2019-02-22T09:33:52.054Z,7.96
2019-02-22T09:34:52.083Z,8.02
2019-02-22T09:35:52.174Z,7.96
2019-02-22T09:36:52.213Z,7.98
2019-02-22T09:37:52.147Z,7.98
2019-02-22T09:38:51.977Z,7.96
2019-02-22T09:39:51.894Z,7.92
2019-02-22T09:40:52.582Z,8
2019-02-22T09:41:53.655Z,7.95
2019-02-22T09:42:52.330Z,7.91
2019-02-22T09:43:56.151Z,7.93
2019-02-22T09:44:52.234Z,7.87
2019-02-22T09:45:52.133Z,7.98
2019-02-22T09:46:52.075Z,7.98
2019-02-22T09:47:52.156Z,7.97
2019-02-22T09:48:52.470Z,7.88
2019-02-22T09:49:51.892Z,7.99
2019-02-22T09:50:52.284Z,8
2019-02-22T09:51:52.008Z,7.96
2019-02-22T09:52:52.031Z,8.01
2019-02-22T09:53:53.763Z,7.93
2019-02-22T09:54:52.095Z,8.01
2019-02-22T09:55:52.346Z,7.95
2019-02-22T09:56:53.730Z,7.97
2019-02-22T09:57:51.973Z,7.96
2019-02-22T09:58:52.482Z,7.96
2019-02-22T09:59:52.284Z,8.05
2019-02-22T10:00:52.341Z,8.08
2019-02-22T10:01:52.254Z,8.07
2019-02-22T10:02:52.843Z,7.97
2019-02-22T10:03:52.469Z,7.92
2019-02-22T10:04:55.824Z,7.9
2019-02-22T10:05:51.871Z,8.04
2019-02-22T10:06:52.033Z,8.01
2019-02-22T10:07:52.185Z,8
2019-02-22T10:08:52.192Z,7.92
2019-02-22T10:09:52.208Z,7.96
2019-02-22T10:10:52.220Z,7.96
2019-02-22T10:11:52.215Z,8.07
2019-02-22T10:12:52.436Z,7.99
2019-02-22T10:13:52.178Z,8.05
2019-02-22T10:14:52.240Z,7.9
2019-02-22T10:15:53.710Z,7.99
2019-02-22T10:16:52.124Z,7.96
2019-02-22T10:17:52.173Z,8.01
2019-02-22T10:18:52.266Z,8.08
2019-02-22T10:19:52.069Z,7.98
2019-02-22T10:20:52.082Z,8.06
2019-02-22T10:21:52.388Z,8.05
2019-02-22T10:22:52.489Z,8.09
2019-02-22T10:23:51.867Z,7.89
2019-02-22T10:24:52.139Z,7.82
2019-02-22T10:25:52.979Z,7.89
2019-02-22T10:26:52.053Z,7.91
2019-02-22T10:27:52.005Z,7.84
2019-02-22T10:28:52.043Z,7.95
2019-02-22T10:29:52.176Z,7.93
2019-02-22T10:30:51.947Z,7.87
2019-02-22T10:31:52.250Z,7.86
2019-02-22T10:32:53.707Z,7.88
2019-02-22T10:33:52.151Z,7.88
2019-02-22T10:34:52.011Z,7.91
2019-02-22T10:35:52.123Z,7.93
2019-02-22T10:36:52.078Z,7.82
2019-02-22T10:37:52.011Z,7.9
2019-02-22T10:38:52.092Z,8.01
2019-02-22T10:39:51.870Z,7.98
2019-02-22T10:40:52.675Z,8.01
2019-02-22T10:41:52.011Z,8.02
2019-02-22T10:42:53.674Z,7.93
2019-02-22T10:43:53.669Z,7.92
2019-02-22T10:44:51.992Z,7.76
2019-02-22T10:45:52.128Z,7.81
2019-02-22T10:46:52.851Z,7.87
2019-02-22T10:47:52.974Z,7.78
2019-02-22T10:48:52.986Z,7.83
2019-02-22T10:49:52.664Z,7.62
2019-02-22T10:50:51.832Z,7.7
2019-02-22T10:51:52.144Z,7.7
2019-02-22T10:53:02.747Z,7.64
2019-02-22T10:53:51.973Z,7.7
2019-02-22T10:54:51.855Z,7.76
2019-02-22T10:55:51.850Z,7.77
2019-02-22T10:56:52.119Z,7.74
2019-02-22T10:57:52.210Z,7.74
2019-02-22T10:58:51.939Z,7.78
2019-02-22T10:59:52.325Z,7.8
2019-02-22T11:00:52.045Z,7.82
2019-02-22T11:01:52.542Z,7.76
2019-02-22T11:02:53.645Z,7.8
2019-02-22T11:03:52.153Z,7.82
2019-02-22T11:04:52.439Z,7.88
2019-02-22T11:05:53.656Z,7.92
2019-02-22T11:06:52.057Z,7.89
2019-02-22T11:07:52.582Z,7.9
2019-02-22T11:08:52.102Z,7.96
2019-02-22T11:09:52.741Z,7.91
2019-02-22T11:10:52.703Z,7.91
2019-02-22T11:11:52.202Z,7.81
2019-02-22T11:12:52.107Z,7.84
2019-02-22T11:13:52.107Z,7.8
2019-02-22T11:14:51.910Z,7.81
2019-02-22T11:15:53.609Z,7.79
2019-02-22T11:16:51.772Z,7.7
2019-02-22T11:17:52.257Z,7.57
2019-02-22T11:18:52.139Z,7.45
2019-02-22T11:19:52.210Z,7.46
2019-02-22T11:20:51.982Z,7.52
2019-02-22T11:21:52.161Z,7.57
2019-02-22T11:22:52.276Z,7.59
2019-02-22T11:23:52.171Z,7.51
2019-02-22T11:24:53.611Z,7.58
2019-02-22T11:25:52.191Z,7.7
2019-02-22T11:26:52.133Z,7.84
2019-02-22T11:27:51.789Z,7.87
2019-02-22T11:28:52.109Z,7.92
2019-02-22T11:29:51.797Z,7.92
2019-02-22T11:30:52.049Z,7.98
2019-02-22T11:31:52.136Z,7.87
2019-02-22T11:32:52.561Z,7.88
2019-02-22T11:33:52.153Z,7.88
2019-02-22T11:34:52.063Z,7.97
2019-02-22T11:35:51.808Z,7.97
2019-02-22T11:36:52.063Z,7.88
2019-02-22T11:37:52.187Z,7.72
2019-02-22T11:38:53.610Z,7.16
2019-02-22T11:39:51.784Z,7.11
2019-02-22T11:40:52.396Z,7.29
2019-02-22T11:41:52.104Z,7.4
2019-02-22T11:42:52.332Z,7.38
2019-02-22T11:43:51.989Z,7.38
2019-02-22T11:44:51.798Z,7.3
2019-02-22T11:45:52.511Z,7.45
2019-02-22T11:46:51.778Z,7.23
2019-02-22T11:47:52.068Z,7.32
2019-02-22T11:48:53.590Z,7.4
2019-02-22T11:49:51.570Z,7.36
2019-02-22T11:50:52.179Z,7.36
2019-02-22T11:51:52.025Z,7.34
2019-02-22T11:52:51.954Z,7.42
2019-02-22T11:53:51.995Z,7.44
2019-02-22T11:54:53.574Z,7.49
2019-02-22T11:55:52.002Z,7.45
2019-02-22T11:56:52.008Z,7.37
2019-02-22T11:57:52.114Z,7.37
2019-02-22T11:58:51.692Z,7.3
2019-02-22T11:59:51.933Z,7.27
2019-02-22T12:00:52.099Z,7.22
2019-02-22T12:01:52.036Z,7.43
2019-02-22T12:02:52.033Z,7.44
2019-02-22T12:03:51.850Z,7.48
2019-02-22T12:04:52.049Z,7.52
2019-02-22T12:05:52.355Z,7.36
2019-02-22T12:06:51.996Z,7.01
2019-02-22T12:07:51.721Z,6.81
2019-02-22T12:08:51.921Z,6.91
2019-02-22T12:09:52.178Z,7.03
2019-02-22T12:10:51.996Z,6.91
2019-02-22T12:11:52.152Z,6.8
2019-02-22T12:12:51.786Z,6.8
2019-02-22T12:13:51.896Z,6.62
2019-02-22T12:14:52.633Z,6.6
2019-02-22T12:15:51.962Z,6.58
2019-02-22T12:16:52.947Z,6.64
2019-02-22T12:17:52.446Z,6.6
2019-02-22T12:18:52.739Z,6.62
2019-02-22T12:19:51.890Z,6.63
2019-02-22T12:20:51.887Z,6.76
2019-02-22T12:21:51.789Z,6.65
2019-02-22T12:22:51.828Z,6.41
2019-02-22T12:23:53.581Z,6.47
2019-02-22T12:24:51.765Z,6.54
2019-02-22T12:25:51.821Z,6.35
2019-02-22T12:26:51.816Z,6.49
2019-02-22T12:27:52.109Z,6.43
2019-02-22T12:28:52.206Z,6.26
2019-02-22T12:29:51.742Z,6.24
2019-02-22T12:30:51.849Z,6.03
2019-02-22T12:31:52.132Z,5.69
2019-02-22T12:32:52.126Z,5.58
2019-02-22T12:33:51.804Z,5.76
2019-02-22T12:34:52.241Z,5.54
2019-02-22T12:35:51.811Z,5.62
2019-02-22T12:36:52.106Z,5.7
2019-02-22T12:37:51.814Z,5.7
2019-02-22T12:38:52.285Z,5.68
2019-02-22T12:39:52.181Z,5.62
2019-02-22T12:40:52.188Z,5.43
2019-02-22T12:41:53.997Z,5.4
2019-02-22T12:42:51.804Z,5.35
2019-02-22T12:43:52.324Z,5.34
2019-02-22T12:45:03.766Z,5.37
2019-02-22T12:45:51.764Z,5.4
2019-02-22T12:46:52.694Z,5.43
2019-02-22T12:47:51.765Z,5.22
2019-02-22T12:48:52.032Z,5.21
2019-02-22T12:49:51.748Z,5.27
2019-02-22T12:50:52.460Z,5.46
2019-02-22T12:51:52.053Z,5.21
2019-02-22T12:52:52.074Z,5.09
2019-02-22T12:53:52.165Z,5.12
2019-02-22T12:54:51.622Z,5.04
2019-02-22T12:55:51.768Z,4.98
2019-02-22T12:56:58.710Z,5.11
2019-02-22T12:57:51.726Z,5.06
2019-02-22T12:58:51.689Z,4.91
2019-02-22T12:59:51.906Z,5.04
2019-02-22T13:00:52.871Z,5.16
2019-02-22T13:01:52.680Z,5.2
2019-02-22T13:03:02.867Z,5.28
2019-02-22T13:03:51.676Z,5.36
2019-02-22T13:04:51.840Z,5.22
2019-02-22T13:05:51.740Z,5.17
2019-02-22T13:06:52.362Z,5.16
2019-02-22T13:07:53.397Z,5.26
2019-02-22T13:08:51.738Z,5.12
2019-02-22T13:09:52.029Z,5.15
2019-02-22T13:10:51.786Z,4.86
2019-02-22T13:11:51.999Z,4.76
2019-02-22T13:12:52.006Z,4.97
2019-02-22T13:13:51.676Z,4.92
2019-02-22T13:14:51.784Z,4.86
2019-02-22T13:15:52.120Z,5.02
2019-02-22T13:16:51.768Z,4.83
2019-02-22T13:17:51.732Z,4.75
2019-02-22T13:18:52.150Z,4.89
2019-02-22T13:19:51.801Z,4.61
2019-02-22T13:20:53.542Z,4.54
2019-02-22T13:21:52.154Z,4.5
2019-02-22T13:22:51.798Z,4.48
2019-02-22T13:23:52.377Z,4.51
2019-02-22T13:24:51.765Z,4.59
2019-02-22T13:25:52.186Z,4.46